Appleyard, Washington
Current Conditions -  °F | °C
As of 9:27 AM on Wednesday 26 Nov 2014 (Local Time) from KEAT Reporting Station
Haze Haze  
Wind Chill: 38°   Ceiling: 600
Heat Index: 38°   Visibility: 1mi
Dew Point: 35°   Wind: 0mph
Humidity: 89%   Direction: NA
Pressure: 30.19"   Gusts: NA
Location:  47.3635°N, 120.348°W
Report Text: KEAT 261727Z AUTO 00000KT 1SM BR BKN006 OVC010 03/02 A3019 RMK AO2 T00330017
Loading
Personal Weather Stations






























Interactive Weather Map New forecast layout! Learn more

10-Day Weather Forecast

Advertisements
Track Severe Weather on mobile